sensor_id;sensor_type;location;lat;lon;timestamp;pressure;altitude;pressure_sealevel;temperature;humidity
4398;BME280;2213;49.720;7.296;2023-02-01T00:00:12;98701.59;;;5.41;100.00
4398;BME280;2213;49.720;7.296;2023-02-01T00:02:41;98701.72;;;5.39;100.00
4398;BME280;2213;49.720;7.296;2023-02-01T00:05:11;98708.56;;;5.40;100.00
4398;BME280;2213;49.720;7.296;2023-02-01T00:07:40;98706.09;;;5.39;100.00
4398;BME280;2213;49.720;7.296;2023-02-01T00:10:14;98705.13;;;5.40;100.00
4398;BME280;2213;49.720;7.296;2023-02-01T00:12:42;98700.06;;;5.38;100.00
4398;BME280;2213;49.720;7.296;2023-02-01T00:15:12;98698.19;;;5.40;100.00
4398;BME280;2213;49.720;7.296;2023-02-01T00:17:41;98694.88;;;5.38;100.00
4398;BME280;2213;49.720;7.296;2023-02-01T00:20:11;98703.66;;;5.37;100.00
4398;BME280;2213;49.720;7.296;2023-02-01T00:22:41;98699.41;;;5.36;100.00
4398;BME280;2213;49.720;7.296;2023-02-01T00:25:12;98698.47;;;5.37;100.00
4398;BME280;2213;49.720;7.296;2023-02-01T00:27:42;98693.00;;;5.40;100.00
4398;BME280;2213;49.720;7.296;2023-02-01T00:30:14;98688.75;;;5.39;100.00
4398;BME280;2213;49.720;7.296;2023-02-01T00:32:45;98684.53;;;5.38;100.00
4398;BME280;2213;49.720;7.296;2023-02-01T00:35:13;98678.53;;;5.38;100.00
4398;BME280;2213;49.720;7.296;2023-02-01T00:37:45;98677.28;;;5.42;100.00
4398;BME280;2213;49.720;7.296;2023-02-01T00:40:17;98674.69;;;5.42;100.00
4398;BME280;2213;49.720;7.296;2023-02-01T00:42:47;98679.59;;;5.45;100.00
4398;BME280;2213;49.720;7.296;2023-02-01T00:45:17;98670.19;;;5.44;100.00
4398;BME280;2213;49.720;7.296;2023-02-01T00:47:47;98684.00;;;5.44;100.00
4398;BME280;2213;49.720;7.296;2023-02-01T00:50:17;98676.34;;;5.43;100.00
4398;BME280;2213;49.720;7.296;2023-02-01T00:52:47;98687.66;;;5.42;100.00
4398;BME280;2213;49.720;7.296;2023-02-01T00:55:18;98684.00;;;5.44;100.00
4398;BME280;2213;49.720;7.296;2023-02-01T00:57:47;98676.06;;;5.46;100.00
4398;BME280;2213;49.720;7.296;2023-02-01T01:00:18;98685.59;;;5.45;100.00
4398;BME280;2213;49.720;7.296;2023-02-01T01:02:49;98687.38;;;5.45;100.00
4398;BME280;2213;49.720;7.296;2023-02-01T01:05:19;98684.94;;;5.43;100.00
4398;BME280;2213;49.720;7.296;2023-02-01T01:07:47;98677.00;;;5.45;100.00
4398;BME280;2213;49.720;7.296;2023-02-01T01:10:19;98664.84;;;5.45;100.00
4398;BME280;2213;49.720;7.296;2023-02-01T01:12:50;98659.13;;;5.42;100.00
4398;BME280;2213;49.720;7.296;2023-02-01T01:15:20;98662.25;;;5.45;100.00
4398;BME280;2213;49.720;7.296;2023-02-01T01:17:49;98661.59;;;5.43;100.00
4398;BME280;2213;49.720;7.296;2023-02-01T01:20:18;98657.22;;;5.44;100.00
4398;BME280;2213;49.720;7.296;2023-02-01T01:22:49;98663.09;;;5.46;100.00
4398;BME280;2213;49.720;7.296;2023-02-01T01:25:21;98666.63;;;5.45;100.00
4398;BME280;2213;49.720;7.296;2023-02-01T01:27:51;98675.38;;;5.44;100.00
4398;BME280;2213;49.720;7.296;2023-02-01T01:30:20;98670.19;;;5.44;100.00
4398;BME280;2213;49.720;7.296;2023-02-01T01:32:52;98671.97;;;5.43;100.00
4398;BME280;2213;49.720;7.296;2023-02-01T01:35:22;98665.84;;;5.44;100.00
4398;BME280;2213;49.720;7.296;2023-02-01T01:37:52;98665.69;;;5.46;100.00
4398;BME280;2213;49.720;7.296;2023-02-01T01:40:23;98674.16;;;5.48;100.00
4398;BME280;2213;49.720;7.296;2023-02-01T01:42:54;98661.31;;;5.46;100.00
4398;BME280;2213;49.720;7.296;2023-02-01T01:45:27;98676.75;;;5.48;100.00
4398;BME280;2213;49.720;7.296;2023-02-01T01:47:59;98664.56;;;5.48;100.00
4398;BME280;2213;49.720;7.296;2023-02-01T01:50:36;98655.84;;;5.49;100.00
4398;BME280;2213;49.720;7.296;2023-02-01T01:53:12;98660.22;;;5.49;100.00
4398;BME280;2213;49.720;7.296;2023-02-01T01:55:47;98658.31;;;5.51;100.00
4398;BME280;2213;49.720;7.296;2023-02-01T01:58:22;98655.84;;;5.49;100.00
4398;BME280;2213;49.720;7.296;2023-02-01T02:00:55;98646.41;;;5.48;100.00
4398;BME280;2213;49.720;7.296;2023-02-01T02:03:32;98637.69;;;5.49;100.00
4398;BME280;2213;49.720;7.296;2023-02-01T02:06:11;98641.22;;;5.48;100.00
4398;BME280;2213;49.720;7.296;2023-02-01T02:08:42;98645.47;;;5.49;100.00
4398;BME280;2213;49.720;7.296;2023-02-01T02:11:16;98635.25;;;5.48;100.00
4398;BME280;2213;49.720;7.296;2023-02-01T02:13:52;98616.94;;;5.49;100.00
4398;BME280;2213;49.720;7.296;2023-02-01T02:16:47;98604.94;;;5.48;100.00
4398;BME280;2213;49.720;7.296;2023-02-01T02:23:26;98600.97;;;5.54;100.00
4398;BME280;2213;49.720;7.296;2023-02-01T02:30:08;98592.38;;;5.53;100.00
4398;BME280;2213;49.720;7.296;2023-02-01T02:36:26;98582.94;;;5.52;100.00
4398;BME280;2213;49.720;7.296;2023-02-01T02:39:07;98598.50;;;5.52;100.00
4398;BME280;2213;49.720;7.296;2023-02-01T02:41:54;98587.19;;;5.53;100.00
4398;BME280;2213;49.720;7.296;2023-02-01T02:44:49;98596.72;;;5.53;100.00
4398;BME280;2213;49.720;7.296;2023-02-01T02:47:46;98592.50;;;5.52;100.00
4398;BME280;2213;49.720;7.296;2023-02-01T02:50:29;98594.97;;;5.53;100.00
4398;BME280;2213;49.720;7.296;2023-02-01T02:53:21;98591.53;;;5.53;100.00
4398;BME280;2213;49.720;7.296;2023-02-01T02:56:12;98601.78;;;5.54;100.00
4398;BME280;2213;49.720;7.296;2023-02-01T02:58:59;98582.94;;;5.52;100.00
4398;BME280;2213;49.720;7.296;2023-02-01T03:01:45;98577.47;;;5.55;100.00
4398;BME280;2213;49.720;7.296;2023-02-01T03:04:33;98578.44;;;5.54;100.00
4398;BME280;2213;49.720;7.296;2023-02-01T03:07:42;98582.81;;;5.54;100.00
4398;BME280;2213;49.720;7.296;2023-02-01T03:10:09;98586.22;;;5.54;100.00
4398;BME280;2213;49.720;7.296;2023-02-01T03:12:41;98586.06;;;5.56;100.00
4398;BME280;2213;49.720;7.296;2023-02-01T03:15:32;98596.44;;;5.56;100.00
4398;BME280;2213;49.720;7.296;2023-02-01T03:18:11;98603.94;;;5.59;100.00
4398;BME280;2213;49.720;7.296;2023-02-01T03:20:49;98602.16;;;5.59;100.00
4398;BME280;2213;49.720;7.296;2023-02-01T03:23:26;98612.69;;;5.58;100.00
4398;BME280;2213;49.720;7.296;2023-02-01T03:26:01;98606.81;;;5.56;100.00
4398;BME280;2213;49.720;7.296;2023-02-01T03:28:35;98612.81;;;5.56;100.00
4398;BME280;2213;49.720;7.296;2023-02-01T03:31:08;98608.59;;;5.55;100.00
4398;BME280;2213;49.720;7.296;2023-02-01T03:33:37;98610.09;;;5.58;100.00
4398;BME280;2213;49.720;7.296;2023-02-01T03:36:20;98604.09;;;5.57;100.00
4398;BME280;2213;49.720;7.296;2023-02-01T03:39:03;98603.16;;;5.58;100.00
4398;BME280;2213;49.720;7.296;2023-02-01T03:41:40;98599.56;;;5.59;100.00
4398;BME280;2213;49.720;7.296;2023-02-01T03:44:16;98587.97;;;5.64;100.00
4398;BME280;2213;49.720;7.296;2023-02-01T03:46:52;98578.28;;;5.66;100.00
4398;BME280;2213;49.720;7.296;2023-02-01T03:49:28;98586.84;;;5.66;100.00
4398;BME280;2213;49.720;7.296;2023-02-01T03:51:59;98590.25;;;5.67;100.00
4398;BME280;2213;49.720;7.296;2023-02-01T03:54:32;98588.34;;;5.69;100.00
4398;BME280;2213;49.720;7.296;2023-02-01T03:57:11;98600.34;;;5.70;100.00
4398;BME280;2213;49.720;7.296;2023-02-01T03:59:44;98601.16;;;5.70;100.00
4398;BME280;2213;49.720;7.296;2023-02-01T04:02:14;98608.81;;;5.72;100.00
4398;BME280;2213;49.720;7.296;2023-02-01T04:04:43;98605.41;;;5.71;100.00
4398;BME280;2213;49.720;7.296;2023-02-01T04:07:14;98622.75;;;5.71;100.00
4398;BME280;2213;49.720;7.296;2023-02-01T04:09:45;98620.16;;;5.71;100.00
4398;BME280;2213;49.720;7.296;2023-02-01T04:12:15;98618.09;;;5.74;100.00
4398;BME280;2213;49.720;7.296;2023-02-01T04:14:44;98625.88;;;5.74;100.00
4398;BME280;2213;49.720;7.296;2023-02-01T04:17:15;98628.47;;;5.74;100.00
4398;BME280;2213;49.720;7.296;2023-02-01T04:19:44;98629.00;;;5.78;100.00
4398;BME280;2213;49.720;7.296;2023-02-01T04:22:14;98613.84;;;5.73;100.00
4398;BME280;2213;49.720;7.296;2023-02-01T04:24:44;98623.16;;;5.76;100.00
4398;BME280;2213;49.720;7.296;2023-02-01T04:27:15;98615.38;;;5.76;100.00
4398;BME280;2213;49.720;7.296;2023-02-01T04:29:45;98629.81;;;5.78;100.00
4398;BME280;2213;49.720;7.296;2023-02-01T04:32:14;98613.44;;;5.78;100.00
4398;BME280;2213;49.720;7.296;2023-02-01T04:34:45;98613.97;;;5.81;100.00
4398;BME280;2213;49.720;7.296;2023-02-01T04:37:14;98618.50;;;5.79;100.00
4398;BME280;2213;49.720;7.296;2023-02-01T04:39:45;98616.56;;;5.81;100.00
4398;BME280;2213;49.720;7.296;2023-02-01T04:42:15;98618.34;;;5.81;100.00
4398;BME280;2213;49.720;7.296;2023-02-01T04:44:45;98627.06;;;5.80;100.00
4398;BME280;2213;49.720;7.296;2023-02-01T04:47:16;98624.47;;;5.80;100.00
4398;BME280;2213;49.720;7.296;2023-02-01T04:49:46;98614.25;;;5.78;100.00
4398;BME280;2213;49.720;7.296;2023-02-01T04:52:15;98625.16;;;5.82;100.00
4398;BME280;2213;49.720;7.296;2023-02-01T04:54:47;98615.09;;;5.79;100.00
4398;BME280;2213;49.720;7.296;2023-02-01T04:57:17;98613.44;;;5.78;100.00
4398;BME280;2213;49.720;7.296;2023-02-01T04:59:47;98610.56;;;5.81;100.00
4398;BME280;2213;49.720;7.296;2023-02-01T05:02:17;98607.00;;;5.82;100.00
4398;BME280;2213;49.720;7.296;2023-02-01T05:04:48;98602.78;;;5.81;100.00
4398;BME280;2213;49.720;7.296;2023-02-01T05:07:18;98606.31;;;5.80;100.00
4398;BME280;2213;49.720;7.296;2023-02-01T05:09:50;98608.25;;;5.78;100.00
4398;BME280;2213;49.720;7.296;2023-02-01T05:12:18;98601.56;;;5.75;100.00
4398;BME280;2213;49.720;7.296;2023-02-01T05:15:09;98605.13;;;5.74;100.00
4398;BME280;2213;49.720;7.296;2023-02-01T05:17:39;98593.09;;;5.73;100.00
4398;BME280;2213;49.720;7.296;2023-02-01T05:20:11;98584.50;;;5.73;100.00
4398;BME280;2213;49.720;7.296;2023-02-01T05:22:41;98590.50;;;5.73;100.00
4398;BME280;2213;49.720;7.296;2023-02-01T05:25:12;98582.88;;;5.72;100.00
4398;BME280;2213;49.720;7.296;2023-02-01T05:27:42;98598.16;;;5.75;100.00
4398;BME280;2213;49.720;7.296;2023-02-01T05:30:13;98610.19;;;5.76;100.00
4398;BME280;2213;49.720;7.296;2023-02-01T05:32:43;98617.13;;;5.75;100.00
4398;BME280;2213;49.720;7.296;2023-02-01T05:35:14;98606.31;;;5.80;100.00
4398;BME280;2213;49.720;7.296;2023-02-01T05:37:45;98607.13;;;5.80;100.00
4398;BME280;2213;49.720;7.296;2023-02-01T05:40:17;98610.84;;;5.78;100.00
4398;BME280;2213;49.720;7.296;2023-02-01T05:42:45;98612.63;;;5.77;100.00
4398;BME280;2213;49.720;7.296;2023-02-01T05:45:16;98620.56;;;5.76;100.00
4398;BME280;2213;49.720;7.296;2023-02-01T05:47:47;98625.75;;;5.76;100.00
4398;BME280;2213;49.720;7.296;2023-02-01T05:50:18;98622.47;;;5.74;100.00
4398;BME280;2213;49.720;7.296;2023-02-01T05:52:49;98632.00;;;5.73;100.00
4398;BME280;2213;49.720;7.296;2023-02-01T05:55:19;98636.53;;;5.71;100.00
4398;BME280;2213;49.720;7.296;2023-02-01T05:57:49;98639.25;;;5.70;100.00
4398;BME280;2213;49.720;7.296;2023-02-01T06:00:21;98630.16;;;5.66;100.00
4398;BME280;2213;49.720;7.296;2023-02-01T06:02:54;98624.81;;;5.67;100.00
4398;BME280;2213;49.720;7.296;2023-02-01T06:05:23;98616.50;;;5.64;100.00
4398;BME280;2213;49.720;7.296;2023-02-01T06:07:53;98619.50;;;5.59;100.00
4398;BME280;2213;49.720;7.296;2023-02-01T06:10:23;98616.13;;;5.58;100.00
4398;BME280;2213;49.720;7.296;2023-02-01T06:12:54;98627.44;;;5.57;100.00
4398;BME280;2213;49.720;7.296;2023-02-01T06:15:24;98621.56;;;5.55;100.00
4398;BME280;2213;49.720;7.296;2023-02-01T06:17:54;98630.31;;;5.54;100.00
4398;BME280;2213;49.720;7.296;2023-02-01T06:20:23;98630.16;;;5.56;100.00
4398;BME280;2213;49.720;7.296;2023-02-01T06:22:52;98634.69;;;5.54;100.00
4398;BME280;2213;49.720;7.296;2023-02-01T06:25:23;98623.38;;;5.55;100.00
4398;BME280;2213;49.720;7.296;2023-02-01T06:27:53;98626.91;;;5.54;100.00
4398;BME280;2213;49.720;7.296;2023-02-01T06:30:22;98632.22;;;5.52;100.00
4398;BME280;2213;49.720;7.296;2023-02-01T06:32:53;98634.97;;;5.51;100.00
4398;BME280;2213;49.720;7.296;2023-02-01T06:35:22;98634.28;;;5.49;100.00
4398;BME280;2213;49.720;7.296;2023-02-01T06:37:52;98640.28;;;5.49;100.00
4398;BME280;2213;49.720;7.296;2023-02-01T06:40:24;98636.75;;;5.50;100.00
4398;BME280;2213;49.720;7.296;2023-02-01T06:42:54;98637.03;;;5.47;100.00
4398;BME280;2213;49.720;7.296;2023-02-01T06:45:23;98627.59;;;5.46;100.00
4398;BME280;2213;49.720;7.296;2023-02-01T06:47:53;98633.44;;;5.48;100.00
4398;BME280;2213;49.720;7.296;2023-02-01T06:50:23;98641.94;;;5.50;100.00
4398;BME280;2213;49.720;7.296;2023-02-01T06:52:54;98643.97;;;5.47;100.00
4398;BME280;2213;49.720;7.296;2023-02-01T06:55:26;98646.03;;;5.43;100.00
4398;BME280;2213;49.720;7.296;2023-02-01T06:57:56;98636.78;;;5.41;100.00
4398;BME280;2213;49.720;7.296;2023-02-01T07:00:25;98639.66;;;5.38;100.00
4398;BME280;2213;49.720;7.296;2023-02-01T07:02:58;98632.28;;;5.33;100.00
4398;BME280;2213;49.720;7.296;2023-02-01T07:05:29;98643.22;;;5.27;100.00
4398;BME280;2213;49.720;7.296;2023-02-01T07:07:59;98646.47;;;5.29;100.00
4398;BME280;2213;49.720;7.296;2023-02-01T07:10:30;98656.97;;;5.28;100.00
4398;BME280;2213;49.720;7.296;2023-02-01T07:13:00;98648.53;;;5.26;100.00
4398;BME280;2213;49.720;7.296;2023-02-01T07:15:31;98646.22;;;5.23;100.00
4398;BME280;2213;49.720;7.296;2023-02-01T07:18:00;98650.56;;;5.22;100.00
4398;BME280;2213;49.720;7.296;2023-02-01T07:20:31;98649.38;;;5.17;100.00
4398;BME280;2213;49.720;7.296;2023-02-01T07:23:01;98645.25;;;5.14;100.00
4398;BME280;2213;49.720;7.296;2023-02-01T07:25:34;98650.72;;;5.11;100.00
4398;BME280;2213;49.720;7.296;2023-02-01T07:28:05;98656.59;;;5.13;100.00
4398;BME280;2213;49.720;7.296;2023-02-01T07:30:34;98661.09;;;5.11;100.00
4398;BME280;2213;49.720;7.296;2023-02-01T07:33:03;98667.78;;;5.14;100.00
4398;BME280;2213;49.720;7.296;2023-02-01T07:35:33;98671.44;;;5.11;100.00
4398;BME280;2213;49.720;7.296;2023-02-01T07:38:04;98666.25;;;5.11;100.00
4398;BME280;2213;49.720;7.296;2023-02-01T07:40:35;98671.44;;;5.11;100.00
4398;BME280;2213;49.720;7.296;2023-02-01T07:43:04;98674.31;;;5.08;100.00
4398;BME280;2213;49.720;7.296;2023-02-01T07:45:35;98679.66;;;5.06;100.00
4398;BME280;2213;49.720;7.296;2023-02-01T07:48:05;98680.19;;;5.10;100.00
4398;BME280;2213;49.720;7.296;2023-02-01T07:50:34;98677.59;;;5.10;100.00
4398;BME280;2213;49.720;7.296;2023-02-01T07:53:05;98682.09;;;5.08;100.00
4398;BME280;2213;49.720;7.296;2023-02-01T07:55:38;98683.03;;;5.07;100.00
4398;BME280;2213;49.720;7.296;2023-02-01T07:58:07;98690.56;;;5.10;100.00
4398;BME280;2213;49.720;7.296;2023-02-01T08:00:37;98683.88;;;5.07;100.00
4398;BME280;2213;49.720;7.296;2023-02-01T08:03:23;98694.09;;;5.09;100.00
4398;BME280;2213;49.720;7.296;2023-02-01T08:05:54;98690.56;;;5.10;100.00
4398;BME280;2213;49.720;7.296;2023-02-01T08:08:25;98692.19;;;5.11;100.00
4398;BME280;2213;49.720;7.296;2023-02-01T08:11:00;98693.16;;;5.10;100.00
4398;BME280;2213;49.720;7.296;2023-02-01T08:13:30;98688.66;;;5.12;100.00
4398;BME280;2213;49.720;7.296;2023-02-01T08:16:00;98693.00;;;5.12;100.00
4398;BME280;2213;49.720;7.296;2023-02-01T08:18:31;98700.38;;;5.16;100.00
4398;BME280;2213;49.720;7.296;2023-02-01T08:21:04;98703.78;;;5.17;100.00
4398;BME280;2213;49.720;7.296;2023-02-01T08:23:36;98711.56;;;5.17;100.00
4398;BME280;2213;49.720;7.296;2023-02-01T08:26:11;98708.81;;;5.18;100.00
4398;BME280;2213;49.720;7.296;2023-02-01T08:28:45;98706.94;;;5.20;100.00
4398;BME280;2213;49.720;7.296;2023-02-01T08:31:18;98709.91;;;5.25;100.00
4398;BME280;2213;49.720;7.296;2023-02-01T08:33:50;98714.16;;;5.26;100.00
4398;BME280;2213;49.720;7.296;2023-02-01T08:36:21;98708.56;;;5.31;100.00
4398;BME280;2213;49.720;7.296;2023-02-01T08:38:52;98701.47;;;5.33;100.00
4398;BME280;2213;49.720;7.296;2023-02-01T08:41:25;98707.47;;;5.33;100.00
4398;BME280;2213;49.720;7.296;2023-02-01T08:43:55;98706.66;;;5.33;100.00
4398;BME280;2213;49.720;7.296;2023-02-01T08:46:25;98713.19;;;5.37;100.00
4398;BME280;2213;49.720;7.296;2023-02-01T08:48:56;98700.06;;;5.38;100.00
4398;BME280;2213;49.720;7.296;2023-02-01T08:51:25;98702.81;;;5.37;100.00
4398;BME280;2213;49.720;7.296;2023-02-01T08:53:55;98710.31;;;5.40;100.00
4398;BME280;2213;49.720;7.296;2023-02-01T08:56:27;98699.53;;;5.44;100.00
4398;BME280;2213;49.720;7.296;2023-02-01T08:58:57;98697.06;;;5.43;100.00
4398;BME280;2213;49.720;7.296;2023-02-01T09:01:28;98699.81;;;5.41;100.00
4398;BME280;2213;49.720;7.296;2023-02-01T09:03:58;98723.00;;;5.43;100.00
4398;BME280;2213;49.720;7.296;2023-02-01T09:06:29;98714.56;;;5.41;100.00
4398;BME280;2213;49.720;7.296;2023-02-01T09:08:59;98709.09;;;5.44;100.00
4398;BME280;2213;49.720;7.296;2023-02-01T09:11:31;98699.00;;;5.41;100.00
4398;BME280;2213;49.720;7.296;2023-02-01T09:14:00;98709.09;;;5.44;100.00
4398;BME280;2213;49.720;7.296;2023-02-01T09:16:30;98712.50;;;5.44;100.00
4398;BME280;2213;49.720;7.296;2023-02-01T09:19:00;98711.00;;;5.42;100.00
4398;BME280;2213;49.720;7.296;2023-02-01T09:21:51;98726.16;;;5.46;100.00
4398;BME280;2213;49.720;7.296;2023-02-01T09:24:21;98745.94;;;5.47;100.00
4398;BME280;2213;49.720;7.296;2023-02-01T09:26:52;98754.41;;;5.49;100.00
4398;BME280;2213;49.720;7.296;2023-02-01T09:29:22;98759.59;;;5.49;100.00
4398;BME280;2213;49.720;7.296;2023-02-01T09:31:52;98763.13;;;5.48;100.00
4398;BME280;2213;49.720;7.296;2023-02-01T09:34:31;98762.88;;;5.51;100.00
4398;BME280;2213;49.720;7.296;2023-02-01T09:37:01;98769.41;;;5.55;100.00
4398;BME280;2213;49.720;7.296;2023-02-01T09:39:31;98774.34;;;5.58;100.00
4398;BME280;2213;49.720;7.296;2023-02-01T09:42:16;98767.78;;;5.54;100.00
4398;BME280;2213;49.720;7.296;2023-02-01T09:45:13;98763.97;;;5.58;100.00
4398;BME280;2213;49.720;7.296;2023-02-01T09:47:50;98770.66;;;5.61;100.00
4398;BME280;2213;49.720;7.296;2023-02-01T09:50:30;98770.91;;;5.68;100.00
4398;BME280;2213;49.720;7.296;2023-02-01T09:53:06;98783.88;;;5.68;100.00
4398;BME280;2213;49.720;7.296;2023-02-01T09:55:43;98778.41;;;5.71;100.00
4398;BME280;2213;49.720;7.296;2023-02-01T09:58:21;98779.25;;;5.71;100.00
4398;BME280;2213;49.720;7.296;2023-02-01T10:00:55;98783.59;;;5.71;100.00
4398;BME280;2213;49.720;7.296;2023-02-01T10:03:29;98779.34;;;5.70;100.00
4398;BME280;2213;49.720;7.296;2023-02-01T10:06:27;98786.19;;;5.71;100.00
4398;BME280;2213;49.720;7.296;2023-02-01T10:09:37;98790.28;;;5.73;100.00
4398;BME280;2213;49.720;7.296;2023-02-01T10:13:03;98802.19;;;5.76;100.00
4398;BME280;2213;49.720;7.296;2023-02-01T10:15:52;98787.94;;;5.80;100.00
4398;BME280;2213;49.720;7.296;2023-02-01T10:18:49;98789.06;;;5.77;100.00
4398;BME280;2213;49.720;7.296;2023-02-01T10:21:41;98773.19;;;5.80;100.00
4398;BME280;2213;49.720;7.296;2023-02-01T10:24:41;98777.56;;;5.80;100.00
4398;BME280;2213;49.720;7.296;2023-02-01T10:27:20;98776.63;;;5.81;100.00
4398;BME280;2213;49.720;7.296;2023-02-01T10:29:57;98779.75;;;5.84;100.00
4398;BME280;2213;49.720;7.296;2023-02-01T10:32:33;98775.41;;;5.85;100.00
4398;BME280;2213;49.720;7.296;2023-02-01T10:35:12;98752.97;;;5.84;100.00
4398;BME280;2213;49.720;7.296;2023-02-01T10:37:44;98760.38;;;5.79;100.00
4398;BME280;2213;49.720;7.296;2023-02-01T10:40:19;98741.00;;;5.83;100.00
4398;BME280;2213;49.720;7.296;2023-02-01T10:42:53;98739.34;;;5.82;100.00
4398;BME280;2213;49.720;7.296;2023-02-01T10:45:29;98734.81;;;5.84;100.00
4398;BME280;2213;49.720;7.296;2023-02-01T10:48:03;98738.25;;;5.84;100.00
4398;BME280;2213;49.720;7.296;2023-02-01T10:50:37;98727.47;;;5.89;100.00
4398;BME280;2213;49.720;7.296;2023-02-01T10:53:16;98727.31;;;5.90;100.00
4398;BME280;2213;49.720;7.296;2023-02-01T10:55:49;98734.97;;;5.92;100.00
4398;BME280;2213;49.720;7.296;2023-02-01T10:58:25;98721.44;;;5.98;100.00
4398;BME280;2213;49.720;7.296;2023-02-01T11:00:58;98728.28;;;5.99;100.00
4398;BME280;2213;49.720;7.296;2023-02-01T11:03:39;98728.81;;;6.02;100.00
4398;BME280;2213;49.720;7.296;2023-02-01T11:06:26;98720.72;;;6.05;100.00
4398;BME280;2213;49.720;7.296;2023-02-01T11:08:58;98717.19;;;6.06;100.00
4398;BME280;2213;49.720;7.296;2023-02-01T11:11:28;98713.59;;;6.07;100.00
4398;BME280;2213;49.720;7.296;2023-02-01T11:14:01;98709.94;;;6.10;100.00
4398;BME280;2213;49.720;7.296;2023-02-01T11:16:39;98706.09;;;6.14;100.00
4398;BME280;2213;49.720;7.296;2023-02-01T11:19:16;98704.16;;;6.16;100.00
4398;BME280;2213;49.720;7.296;2023-02-01T11:21:52;98711.00;;;6.17;100.00
4398;BME280;2213;49.720;7.296;2023-02-01T11:24:26;98708.41;;;6.17;100.00
4398;BME280;2213;49.720;7.296;2023-02-01T11:26:58;98704.97;;;6.17;100.00
4398;BME280;2213;49.720;7.296;2023-02-01T11:29:35;98713.31;;;6.20;100.00
4398;BME280;2213;49.720;7.296;2023-02-01T11:32:09;98713.84;;;6.24;100.00
4398;BME280;2213;49.720;7.296;2023-02-01T11:34:46;98710.41;;;6.23;100.00
4398;BME280;2213;49.720;7.296;2023-02-01T11:37:23;98706.03;;;6.24;100.00
4398;BME280;2213;49.720;7.296;2023-02-01T11:39:58;98702.63;;;6.23;100.00
4398;BME280;2213;49.720;7.296;2023-02-01T11:42:30;98703.28;;;6.25;100.00
4398;BME280;2213;49.720;7.296;2023-02-01T11:45:20;98704.34;;;6.32;100.00
4398;BME280;2213;49.720;7.296;2023-02-01T11:47:53;98705.03;;;6.34;100.00
4398;BME280;2213;49.720;7.296;2023-02-01T11:50:35;98710.66;;;6.30;100.00
4398;BME280;2213;49.720;7.296;2023-02-01T11:53:25;98699.97;;;6.33;100.00
4398;BME280;2213;49.720;7.296;2023-02-01T11:56:15;98690.00;;;6.28;100.00
4398;BME280;2213;49.720;7.296;2023-02-01T11:59:25;98700.94;;;6.32;100.00
4398;BME280;2213;49.720;7.296;2023-02-01T12:02:19;98702.28;;;6.36;100.00
4398;BME280;2213;49.720;7.296;2023-02-01T12:05:10;98703.41;;;6.33;100.00
4398;BME280;2213;49.720;7.296;2023-02-01T12:08:21;98702.00;;;6.39;100.00
4398;BME280;2213;49.720;7.296;2023-02-01T12:11:20;98705.41;;;6.39;100.00
4398;BME280;2213;49.720;7.296;2023-02-01T12:14:30;98690.53;;;6.41;100.00
4398;BME280;2213;49.720;7.296;2023-02-01T12:17:42;98678.19;;;6.43;100.00
4398;BME280;2213;49.720;7.296;2023-02-01T12:21:03;98671.22;;;6.44;100.00
4398;BME280;2213;49.720;7.296;2023-02-01T12:24:07;98676.00;;;6.48;100.00
4398;BME280;2213;49.720;7.296;2023-02-01T12:27:00;98681.47;;;6.45;100.00
4398;BME280;2213;49.720;7.296;2023-02-01T12:29:55;98669.69;;;6.51;100.00
4398;BME280;2213;49.720;7.296;2023-02-01T12:32:45;98663.66;;;6.50;100.00
4398;BME280;2213;49.720;7.296;2023-02-01T12:35:41;98639.63;;;6.48;100.00
4398;BME280;2213;49.720;7.296;2023-02-01T12:38:35;98629.88;;;6.50;100.00
4398;BME280;2213;49.720;7.296;2023-02-01T12:44:26;98621.44;;;6.48;100.00
4398;BME280;2213;49.720;7.296;2023-02-01T12:47:01;98623.28;;;6.56;100.00
4398;BME280;2213;49.720;7.296;2023-02-01T12:49:47;98612.75;;;6.57;100.00
4398;BME280;2213;49.720;7.296;2023-02-01T12:52:25;98613.19;;;6.53;100.00
4398;BME280;2213;49.720;7.296;2023-02-01T12:55:04;98614.00;;;6.53;100.00
4398;BME280;2213;49.720;7.296;2023-02-01T12:57:41;98607.84;;;6.54;100.00
4398;BME280;2213;49.720;7.296;2023-02-01T13:00:22;98604.59;;;6.52;100.00
4398;BME280;2213;49.720;7.296;2023-02-01T13:03:03;98595.69;;;6.55;100.00
4398;BME280;2213;49.720;7.296;2023-02-01T13:05:46;98589.22;;;6.59;100.00
4398;BME280;2213;49.720;7.296;2023-02-01T13:08:25;98594.88;;;6.54;100.00
4398;BME280;2213;49.720;7.296;2023-02-01T13:11:04;98591.53;;;6.62;100.00
4398;BME280;2213;49.720;7.296;2023-02-01T13:13:48;98581.28;;;6.61;100.00
4398;BME280;2213;49.720;7.296;2023-02-01T13:16:27;98577.56;;;6.63;100.00
4398;BME280;2213;49.720;7.296;2023-02-01T13:19:14;98581.78;;;6.64;100.00
4398;BME280;2213;49.720;7.296;2023-02-01T13:21:53;98582.31;;;6.68;100.00
4398;BME280;2213;49.720;7.296;2023-02-01T13:24:35;98575.78;;;6.64;100.00
4398;BME280;2213;49.720;7.296;2023-02-01T13:27:08;98574.38;;;6.69;100.00
4398;BME280;2213;49.720;7.296;2023-02-01T13:29:52;98589.66;;;6.72;100.00
4398;BME280;2213;49.720;7.296;2023-02-01T13:33:02;98591.31;;;6.73;100.00
4398;BME280;2213;49.720;7.296;2023-02-01T13:36:46;98572.31;;;6.73;100.00
4398;BME280;2213;49.720;7.296;2023-02-01T13:39:48;98585.28;;;6.73;100.00
4398;BME280;2213;49.720;7.296;2023-02-01T13:42:23;98580.91;;;6.73;100.00
4398;BME280;2213;49.720;7.296;2023-02-01T13:45:02;98571.31;;;6.74;100.00
4398;BME280;2213;49.720;7.296;2023-02-01T13:47:39;98585.28;;;6.73;100.00
4398;BME280;2213;49.720;7.296;2023-02-01T13:50:23;98583.66;;;6.72;100.00
4398;BME280;2213;49.720;7.296;2023-02-01T13:52:57;98592.09;;;6.74;100.00
4398;BME280;2213;49.720;7.296;2023-02-01T13:55:32;98587.94;;;6.81;100.00
4398;BME280;2213;49.720;7.296;2023-02-01T13:58:22;98588.75;;;6.81;100.00
4398;BME280;2213;49.720;7.296;2023-02-01T14:01:34;98579.41;;;6.88;100.00
4398;BME280;2213;49.720;7.296;2023-02-01T14:04:45;98579.91;;;6.92;100.00
4398;BME280;2213;49.720;7.296;2023-02-01T14:06:57;98573.38;;;6.88;100.00
4398;BME280;2213;49.720;7.296;2023-02-01T14:09:35;98581.69;;;6.91;100.00
4398;BME280;2213;49.720;7.296;2023-02-01T14:13:03;98581.56;;;6.93;100.00
4398;BME280;2213;49.720;7.296;2023-02-01T14:15:33;98582.91;;;6.97;100.00
4398;BME280;2213;49.720;7.296;2023-02-01T14:18:49;98589.69;;;6.98;100.00
4398;BME280;2213;49.720;7.296;2023-02-01T14:21:29;98597.50;;;6.98;100.00
4398;BME280;2213;49.720;7.296;2023-02-01T14:24:17;98588.66;;;6.91;100.00
4398;BME280;2213;49.720;7.296;2023-02-01T14:26:51;98595.50;;;6.92;100.00